Time;durP1;ratioP1;P1;durP2;ratioP2;P2;SDS_P1;SDS_P2;PMS_P1;PMS_P2;Temp;Humidity;BMP_temperature;BMP_pressure;BME280_temperature;BME280_humidity;BME280_pressure;Samples;Min_cycle;Max_cycle;Signal;HPM_P1;HPM_P2
2024/03/06 00:00:33;;;;;;;7.73;2.40;;;;;;;;;;10408919;28;20434;-65
2024/03/06 00:05:34;;;;;;;8.27;2.45;;;;;;;;;;10407526;28;20447;-66
2024/03/06 00:10:36;;;;;;;5.95;2.05;;;;;;;;;;10409132;28;20036;-68
2024/03/06 00:15:36;;;;;;;6.75;1.95;;;;;;;;;;10408277;28;20054;-68
2024/03/06 00:20:37;;;;;;;10.50;1.90;;;;;;;;;;10408460;28;20029;-66
2024/03/06 00:25:38;;;;;;;4.85;1.70;;;;;;;;;;10408541;28;20450;-65
2024/03/06 00:30:38;;;;;;;7.25;2.00;;;;;;;;;;10408317;28;20042;-65
2024/03/06 00:35:39;;;;;;;5.53;2.13;;;;;;;;;;10408795;28;20033;-66
2024/03/06 00:40:39;;;;;;;3.80;2.63;;;;;;;;;;10407705;28;20543;-66
2024/03/06 00:45:40;;;;;;;2.83;1.90;;;;;;;;;;10408342;28;20466;-66
2024/03/06 00:50:40;;;;;;;4.32;1.80;;;;;;;;;;10407411;28;20548;-65
2024/03/06 00:55:40;;;;;;;4.85;1.80;;;;;;;;;;10407622;28;20025;-65
2024/03/06 01:00:41;;;;;;;8.18;2.33;;;;;;;;;;10407620;28;20052;-66
2024/03/06 01:05:42;;;;;;;6.93;1.77;;;;;;;;;;10407530;28;20032;-66
2024/03/06 01:10:42;;;;;;;4.70;1.98;;;;;;;;;;10407374;28;20067;-66
2024/03/06 01:15:43;;;;;;;4.13;2.43;;;;;;;;;;10411637;28;20041;-65
2024/03/06 01:20:43;;;;;;;5.37;1.87;;;;;;;;;;10414497;28;20427;-66
2024/03/06 01:25:43;;;;;;;4.28;1.90;;;;;;;;;;10415344;28;20447;-65
2024/03/06 01:30:44;;;;;;;3.03;1.57;;;;;;;;;;10414638;28;20175;-65
2024/03/06 01:35:44;;;;;;;3.10;1.60;;;;;;;;;;10414089;28;20450;-65
2024/03/06 01:40:45;;;;;;;5.70;1.77;;;;;;;;;;10414344;28;20500;-65
2024/03/06 01:45:46;;;;;;;4.18;1.75;;;;;;;;;;10414019;28;20513;-65
2024/03/06 01:50:47;;;;;;;3.60;1.67;;;;;;;;;;10414374;28;20033;-65
2024/03/06 01:55:48;;;;;;;3.70;1.33;;;;;;;;;;10413625;28;20033;-66
2024/03/06 02:00:50;;;;;;;3.65;1.58;;;;;;;;;;10413689;28;20029;-65
2024/03/06 02:05:50;;;;;;;5.57;1.98;;;;;;;;;;10413059;28;20560;-64
2024/03/06 02:10:51;;;;;;;6.25;1.83;;;;;;;;;;10411839;28;20064;-64
2024/03/06 02:15:51;;;;;;;5.22;1.90;;;;;;;;;;10411465;28;20049;-65
2024/03/06 02:20:51;;;;;;;2.45;1.50;;;;;;;;;;10412913;28;20034;-65
2024/03/06 02:25:52;;;;;;;6.68;1.98;;;;;;;;;;10412399;28;20047;-65
2024/03/06 02:30:52;;;;;;;3.30;1.30;;;;;;;;;;10413008;28;20083;-65
2024/03/06 02:35:53;;;;;;;4.07;1.50;;;;;;;;;;10412281;28;20021;-64
2024/03/06 02:40:53;;;;;;;5.03;1.60;;;;;;;;;;10412586;28;20061;-63
2024/03/06 02:45:54;;;;;;;3.88;1.40;;;;;;;;;;10411927;28;20435;-63
2024/03/06 02:50:55;;;;;;;2.00;1.40;;;;;;;;;;10411883;28;20060;-64
2024/03/06 02:55:55;;;;;;;5.38;1.75;;;;;;;;;;10411013;28;20029;-64
2024/03/06 03:00:56;;;;;;;3.60;1.67;;;;;;;;;;10411685;28;20029;-64
2024/03/06 03:05:56;;;;;;;3.93;1.40;;;;;;;;;;10411644;28;20462;-64
2024/03/06 03:10:57;;;;;;;2.47;1.58;;;;;;;;;;10411129;28;21058;-64
2024/03/06 03:15:58;;;;;;;3.03;1.30;;;;;;;;;;10410557;28;20045;-61
2024/03/06 03:20:58;;;;;;;6.53;1.20;;;;;;;;;;10411192;28;20450;-65
2024/03/06 03:25:58;;;;;;;4.20;1.80;;;;;;;;;;10410256;28;20148;-65
2024/03/06 03:30:59;;;;;;;13.17;1.80;;;;;;;;;;10410237;28;20924;-65
2024/03/06 03:35:59;;;;;;;3.43;1.53;;;;;;;;;;10409304;28;20477;-65
2024/03/06 03:41:00;;;;;;;4.32;1.60;;;;;;;;;;10410316;28;20439;-65
2024/03/06 03:46:00;;;;;;;2.73;1.63;;;;;;;;;;10409365;28;20028;-65
2024/03/06 03:51:03;;;;;;;3.23;1.50;;;;;;;;;;10409704;28;20467;-66
2024/03/06 03:56:04;;;;;;;3.50;1.60;;;;;;;;;;10409550;28;20462;-65
2024/03/06 04:01:04;;;;;;;4.68;1.55;;;;;;;;;;10409098;28;20528;-66
2024/03/06 04:06:06;;;;;;;1.92;1.30;;;;;;;;;;10409291;28;20029;-66
2024/03/06 04:11:07;;;;;;;3.63;1.48;;;;;;;;;;10409071;28;20033;-66
2024/03/06 04:16:07;;;;;;;2.13;1.40;;;;;;;;;;10408551;28;20038;-65
2024/03/06 04:21:09;;;;;;;1.30;1.20;;;;;;;;;;10408395;28;20029;-65
2024/03/06 04:26:09;;;;;;;2.75;1.35;;;;;;;;;;10408283;28;20502;-66
2024/03/06 04:31:10;;;;;;;2.85;1.33;;;;;;;;;;10408206;28;20063;-64
2024/03/06 04:36:10;;;;;;;1.35;1.20;;;;;;;;;;10408644;28;20033;-65
2024/03/06 04:41:11;;;;;;;5.70;1.70;;;;;;;;;;10407893;28;20033;-63
2024/03/06 04:46:14;;;;;;;1.50;1.40;;;;;;;;;;10408645;28;20451;-65
2024/03/06 04:51:15;;;;;;;1.50;1.40;;;;;;;;;;10413798;28;20530;-65
2024/03/06 04:56:18;;;;;;;2.03;1.30;;;;;;;;;;10415919;28;20030;-66
2024/03/06 05:01:19;;;;;;;6.20;1.60;;;;;;;;;;10416420;28;20029;-65
2024/03/06 05:06:19;;;;;;;2.43;1.50;;;;;;;;;;10415665;28;20030;-65
2024/03/06 05:11:19;;;;;;;6.43;1.50;;;;;;;;;;10415407;28;20505;-66
2024/03/06 05:16:23;;;;;;;3.10;1.63;;;;;;;;;;10415145;28;20534;-66
2024/03/06 05:21:23;;;;;;;2.63;1.60;;;;;;;;;;10414837;28;20450;-65
2024/03/06 05:26:24;;;;;;;1.50;1.20;;;;;;;;;;10414725;28;20026;-64
2024/03/06 05:31:25;;;;;;;5.13;1.60;;;;;;;;;;10414676;28;20032;-66
2024/03/06 05:36:25;;;;;;;1.88;1.40;;;;;;;;;;10414932;28;20022;-65
2024/03/06 05:41:25;;;;;;;5.07;1.60;;;;;;;;;;10414080;28;20485;-62
2024/03/06 05:46:26;;;;;;;2.33;1.50;;;;;;;;;;10413796;28;20455;-62
2024/03/06 05:51:26;;;;;;;3.57;1.40;;;;;;;;;;10412182;28;21253;-65
2024/03/06 05:56:26;;;;;;;3.27;1.60;;;;;;;;;;10413171;28;20451;-61
2024/03/06 06:01:27;;;;;;;2.63;1.40;;;;;;;;;;10413038;28;20454;-65
2024/03/06 06:06:27;;;;;;;3.50;1.60;;;;;;;;;;10413101;28;20451;-65
2024/03/06 06:11:28;;;;;;;4.27;1.73;;;;;;;;;;10411022;28;20457;-62
2024/03/06 06:16:35;;;;;;;3.53;1.40;;;;;;;;;;10412128;28;20533;-66
2024/03/06 06:21:35;;;;;;;2.55;1.30;;;;;;;;;;10412243;28;20052;-65
2024/03/06 06:26:36;;;;;;;2.15;1.58;;;;;;;;;;10412013;28;20032;-65
2024/03/06 06:31:36;;;;;;;3.67;1.45;;;;;;;;;;10412652;28;20025;-66
2024/03/06 06:36:37;;;;;;;3.77;1.40;;;;;;;;;;10412533;28;20408;-65
2024/03/06 06:41:38;;;;;;;1.40;1.30;;;;;;;;;;10412349;28;20439;-66
2024/03/06 06:46:39;;;;;;;2.67;1.30;;;;;;;;;;10411872;28;20401;-66
2024/03/06 06:51:39;;;;;;;1.95;1.48;;;;;;;;;;10412126;28;20529;-67
2024/03/06 06:56:40;;;;;;;5.93;1.60;;;;;;;;;;10410183;28;20127;-66
2024/03/06 07:01:43;;;;;;;4.85;1.40;;;;;;;;;;10410323;28;20084;-65
2024/03/06 07:06:43;;;;;;;10.35;1.88;;;;;;;;;;10411438;28;20468;-66
2024/03/06 07:11:44;;;;;;;3.10;1.88;;;;;;;;;;10409018;28;20068;-64
2024/03/06 07:16:45;;;;;;;2.88;1.55;;;;;;;;;;10408434;28;20128;-64
2024/03/06 07:21:46;;;;;;;5.70;2.38;;;;;;;;;;10409210;28;20049;-65
2024/03/06 07:26:46;;;;;;;4.57;1.95;;;;;;;;;;10409094;28;20428;-64
2024/03/06 07:31:47;;;;;;;4.30;2.00;;;;;;;;;;10409491;28;20083;-65
2024/03/06 07:36:48;;;;;;;3.92;1.50;;;;;;;;;;10410007;28;20455;-64
2024/03/06 07:41:49;;;;;;;5.72;2.15;;;;;;;;;;10409590;28;20300;-64
2024/03/06 07:46:49;;;;;;;6.63;2.25;;;;;;;;;;10409614;28;20311;-64
2024/03/06 07:51:50;;;;;;;8.10;2.15;;;;;;;;;;10409357;28;20029;-64
2024/03/06 07:56:51;;;;;;;7.87;1.90;;;;;;;;;;10409297;28;20021;-64
2024/03/06 08:01:52;;;;;;;4.07;2.10;;;;;;;;;;10409380;28;20423;-63
2024/03/06 08:06:52;;;;;;;5.72;2.47;;;;;;;;;;10409716;28;20025;-63
2024/03/06 08:11:54;;;;;;;4.57;2.27;;;;;;;;;;10408513;28;20496;-63
2024/03/06 08:16:55;;;;;;;5.15;1.90;;;;;;;;;;10408470;28;20610;-63
2024/03/06 08:21:55;;;;;;;9.18;2.08;;;;;;;;;;10408272;28;20033;-63
2024/03/06 08:26:56;;;;;;;6.18;2.00;;;;;;;;;;10408382;28;20029;-64
2024/03/06 08:31:59;;;;;;;7.13;2.35;;;;;;;;;;10408427;28;20029;-64
2024/03/06 08:37:00;;;;;;;5.63;1.85;;;;;;;;;;10408632;28;20413;-63
2024/03/06 08:42:02;;;;;;;4.45;2.10;;;;;;;;;;10407927;28;20032;-63
2024/03/06 08:47:03;;;;;;;11.07;2.35;;;;;;;;;;10408125;28;20079;-63
2024/03/06 08:52:03;;;;;;;4.75;2.28;;;;;;;;;;10407914;28;20350;-64
2024/03/06 08:57:04;;;;;;;3.28;2.00;;;;;;;;;;10408273;28;20029;-63
2024/03/06 09:02:18;;;;;;;5.25;1.88;;;;;;;;;;10407196;28;20038;-64
2024/03/06 09:07:19;;;;;;;4.60;2.25;;;;;;;;;;10407932;28;20032;-63
2024/03/06 09:12:20;;;;;;;4.80;1.95;;;;;;;;;;10407816;28;20120;-63
2024/03/06 09:17:20;;;;;;;4.32;2.10;;;;;;;;;;10407115;28;20068;-63
2024/03/06 09:22:21;;;;;;;8.30;2.23;;;;;;;;;;10407120;28;20030;-64
2024/03/06 09:27:21;;;;;;;2.03;1.80;;;;;;;;;;10407190;28;20526;-64
2024/03/06 09:32:22;;;;;;;2.70;1.80;;;;;;;;;;10407277;28;20021;-64
2024/03/06 09:37:22;;;;;;;5.05;2.10;;;;;;;;;;10412385;28;20435;-64
2024/03/06 09:42:23;;;;;;;5.10;2.33;;;;;;;;;;10414705;28;20032;-64
2024/03/06 09:47:26;;;;;;;3.80;2.20;;;;;;;;;;10413971;28;20843;-64
2024/03/06 09:52:27;;;;;;;5.03;1.95;;;;;;;;;;10414143;28;20025;-64
2024/03/06 09:57:27;;;;;;;5.70;1.90;;;;;;;;;;10413551;28;20025;-64
2024/03/06 10:02:33;;;;;;;4.33;2.23;;;;;;;;;;10413482;28;20030;-64
2024/03/06 10:07:33;;;;;;;5.40;2.17;;;;;;;;;;10412484;28;20794;-64
2024/03/06 10:12:35;;;;;;;6.75;2.15;;;;;;;;;;10413185;28;20021;-64
2024/03/06 10:17:35;;;;;;;3.97;2.25;;;;;;;;;;10413444;28;20056;-64
2024/03/06 10:22:36;;;;;;;6.28;1.88;;;;;;;;;;10412859;28;20091;-65
2024/03/06 10:27:36;;;;;;;2.47;1.90;;;;;;;;;;10412700;28;20037;-64
2024/03/06 10:32:37;;;;;;;4.83;2.17;;;;;;;;;;10412417;28;20026;-64
2024/03/06 10:37:40;;;;;;;5.03;2.08;;;;;;;;;;10412741;28;20442;-64
2024/03/06 10:42:42;;;;;;;6.72;2.42;;;;;;;;;;10411279;28;20072;-63
2024/03/06 10:47:47;;;;;;;5.07;1.88;;;;;;;;;;10411003;28;20052;-63
2024/03/06 10:52:49;;;;;;;3.75;2.20;;;;;;;;;;10411821;28;20036;-64
2024/03/06 10:57:52;;;;;;;2.85;2.22;;;;;;;;;;10410225;28;20022;-63
2024/03/06 11:02:53;;;;;;;3.40;2.20;;;;;;;;;;10411095;28;20095;-64
2024/03/06 11:07:53;;;;;;;3.22;2.10;;;;;;;;;;10409825;28;20084;-64
2024/03/06 11:12:54;;;;;;;3.25;1.92;;;;;;;;;;10410444;28;20038;-63
2024/03/06 11:17:54;;;;;;;5.78;2.30;;;;;;;;;;10410916;28;20021;-64
2024/03/06 11:22:58;;;;;;;5.70;2.65;;;;;;;;;;10410288;28;20036;-62
2024/03/06 11:28:10;;;;;;;4.20;2.22;;;;;;;;;;10410297;28;20052;-63
2024/03/06 11:33:12;;;;;;;9.73;2.40;;;;;;;;;;10409842;28;20310;-63
2024/03/06 11:38:16;;;;;;;4.13;2.40;;;;;;;;;;10410548;28;20037;-63
2024/03/06 11:43:27;;;;;;;5.82;2.10;;;;;;;;;;10408883;28;20449;-60
2024/03/06 11:48:27;;;;;;;4.32;2.28;;;;;;;;;;10407493;28;20060;-60
2024/03/06 11:53:29;;;;;;;3.47;2.13;;;;;;;;;;10409292;28;20034;-60
2024/03/06 11:58:30;;;;;;;2.60;1.95;;;;;;;;;;10409241;28;21021;-61
2024/03/06 12:03:30;;;;;;;4.53;2.20;;;;;;;;;;10409187;28;20029;-60
2024/03/06 12:08:31;;;;;;;5.80;2.22;;;;;;;;;;10408903;28;20157;-60
2024/03/06 12:13:32;;;;;;;4.45;1.98;;;;;;;;;;10408541;28;20049;-60
2024/03/06 12:18:33;;;;;;;2.53;2.22;;;;;;;;;;10409267;28;20112;-60
2024/03/06 12:23:34;;;;;;;3.35;2.50;;;;;;;;;;10408184;28;20049;-60
2024/03/06 12:28:34;;;;;;;3.83;2.53;;;;;;;;;;10408770;28;20456;-60
2024/03/06 12:33:35;;;;;;;2.38;1.92;;;;;;;;;;10408976;28;20473;-61
2024/03/06 12:38:37;;;;;;;5.03;2.03;;;;;;;;;;10407840;28;20484;-61
2024/03/06 12:43:37;;;;;;;3.03;1.92;;;;;;;;;;10407753;28;20473;-61
2024/03/06 12:48:37;;;;;;;2.80;2.40;;;;;;;;;;10408373;28;20025;-60
2024/03/06 12:53:38;;;;;;;4.60;2.23;;;;;;;;;;10408308;28;20041;-60
2024/03/06 12:58:38;;;;;;;3.95;2.03;;;;;;;;;;10408091;28;20434;-60
2024/03/06 13:03:39;;;;;;;5.28;2.17;;;;;;;;;;10407996;28;20045;-61
2024/03/06 13:08:39;;;;;;;7.53;2.30;;;;;;;;;;10407708;28;20018;-60
2024/03/06 13:13:40;;;;;;;2.67;2.20;;;;;;;;;;10414949;28;20485;-60
2024/03/06 13:18:40;;;;;;;2.80;2.33;;;;;;;;;;10414881;28;20516;-60
2024/03/06 13:23:40;;;;;;;2.97;2.33;;;;;;;;;;10415690;28;20447;-60
2024/03/06 13:28:41;;;;;;;2.70;2.00;;;;;;;;;;10414988;28;20807;-60
2024/03/06 13:33:42;;;;;;;4.65;1.92;;;;;;;;;;10414378;28;20022;-61
2024/03/06 13:38:43;;;;;;;4.15;2.30;;;;;;;;;;10414477;28;20235;-60
2024/03/06 13:43:43;;;;;;;4.78;2.20;;;;;;;;;;10414107;28;20415;-63
2024/03/06 13:48:43;;;;;;;4.47;2.33;;;;;;;;;;10414225;28;20029;-59
2024/03/06 13:53:44;;;;;;;6.03;2.43;;;;;;;;;;10414369;28;20536;-59
2024/03/06 13:58:44;;;;;;;4.25;1.95;;;;;;;;;;10413592;28;20447;-59
2024/03/06 14:03:45;;;;;;;5.78;2.17;;;;;;;;;;10413788;28;20052;-60
2024/03/06 14:08:45;;;;;;;2.87;2.30;;;;;;;;;;10412726;28;20122;-59
2024/03/06 14:13:46;;;;;;;9.88;2.17;;;;;;;;;;10412081;28;20558;-60
2024/03/06 14:18:46;;;;;;;3.58;2.13;;;;;;;;;;10412979;28;20029;-59
2024/03/06 14:23:47;;;;;;;4.00;2.25;;;;;;;;;;10412907;28;20032;-59
2024/03/06 14:28:47;;;;;;;3.33;2.10;;;;;;;;;;10413351;28;20481;-59
2024/03/06 14:33:48;;;;;;;4.22;2.13;;;;;;;;;;10412755;28;20778;-59
2024/03/06 14:38:49;;;;;;;9.02;1.90;;;;;;;;;;10412784;28;20026;-59
2024/03/06 14:43:49;;;;;;;2.78;1.73;;;;;;;;;;10412543;28;20037;-60
2024/03/06 14:48:50;;;;;;;3.33;2.03;;;;;;;;;;10411855;28;20041;-60
2024/03/06 14:53:50;;;;;;;2.83;2.00;;;;;;;;;;10411921;28;20466;-59
2024/03/06 14:58:51;;;;;;;3.45;1.63;;;;;;;;;;10411750;28;20451;-60
2024/03/06 15:03:53;;;;;;;2.80;1.80;;;;;;;;;;10411338;28;20022;-59
2024/03/06 15:08:57;;;;;;;3.15;1.80;;;;;;;;;;10411235;28;20026;-59
2024/03/06 15:13:58;;;;;;;4.80;2.15;;;;;;;;;;10410771;28;20050;-62
2024/03/06 15:18:58;;;;;;;2.20;2.00;;;;;;;;;;10410341;28;20486;-60
2024/03/06 15:23:58;;;;;;;6.07;2.13;;;;;;;;;;10410439;28;20026;-60
2024/03/06 15:28:59;;;;;;;4.25;2.13;;;;;;;;;;10410238;28;20075;-59
2024/03/06 15:34:00;;;;;;;4.72;2.17;;;;;;;;;;10409522;28;20549;-59
2024/03/06 15:39:00;;;;;;;4.50;2.05;;;;;;;;;;10409729;28;20087;-60
2024/03/06 15:44:01;;;;;;;6.47;2.35;;;;;;;;;;10409617;28;20424;-60
2024/03/06 15:49:06;;;;;;;6.13;2.17;;;;;;;;;;10408773;28;20200;-61
2024/03/06 15:54:08;;;;;;;7.13;3.05;;;;;;;;;;10407587;28;20315;-59
2024/03/06 15:59:08;;;;;;;6.93;2.42;;;;;;;;;;10406887;28;20465;-59
2024/03/06 16:04:09;;;;;;;6.80;2.17;;;;;;;;;;10407352;28;20264;-59
2024/03/06 16:09:13;;;;;;;9.00;2.23;;;;;;;;;;10407344;28;20021;-59
2024/03/06 16:14:13;;;;;;;5.13;2.33;;;;;;;;;;10408228;28;20550;-59
2024/03/06 16:19:15;;;;;;;2.80;2.08;;;;;;;;;;10408781;28;20105;-59
2024/03/06 16:24:16;;;;;;;4.68;2.05;;;;;;;;;;10407952;28;20225;-59
2024/03/06 16:29:17;;;;;;;2.80;2.27;;;;;;;;;;10408584;28;20025;-59
2024/03/06 16:34:21;;;;;;;6.20;1.92;;;;;;;;;;10407788;28;21001;-59
2024/03/06 16:39:23;;;;;;;5.65;2.28;;;;;;;;;;10408819;28;20513;-59
2024/03/06 16:44:23;;;;;;;1.85;1.60;;;;;;;;;;10410812;28;20079;-59
2024/03/06 16:49:24;;;;;;;7.05;2.20;;;;;;;;;;10416673;28;20377;-59
2024/03/06 16:54:24;;;;;;;3.13;1.87;;;;;;;;;;10415801;28;20070;-59
2024/03/06 16:59:25;;;;;;;3.22;2.03;;;;;;;;;;10415704;28;20439;-59
2024/03/06 17:04:25;;;;;;;3.40;1.83;;;;;;;;;;10430175;23;20093;-58
2024/03/06 17:09:27;;;;;;;1.73;1.63;;;;;;;;;;10421712;28;20129;-58
2024/03/06 17:14:27;;;;;;;4.07;2.00;;;;;;;;;;10417693;28;20366;-64
2024/03/06 17:19:27;;;;;;;5.63;1.85;;;;;;;;;;10415339;28;20029;-61
2024/03/06 17:24:29;;;;;;;2.97;1.80;;;;;;;;;;10415452;28;20087;-62
2024/03/06 17:29:29;;;;;;;2.03;1.73;;;;;;;;;;10415455;28;20059;-63
2024/03/06 17:34:31;;;;;;;1.87;1.50;;;;;;;;;;10415082;28;20040;-62
2024/03/06 17:39:31;;;;;;;3.20;1.67;;;;;;;;;;10414674;28;20427;-62
2024/03/06 17:44:32;;;;;;;3.20;1.80;;;;;;;;;;10414907;28;20380;-64
2024/03/06 17:49:32;;;;;;;4.50;1.98;;;;;;;;;;10413107;28;20052;-61
2024/03/06 17:54:34;;;;;;;5.90;1.77;;;;;;;;;;10413374;28;20021;-62
2024/03/06 17:59:35;;;;;;;2.42;1.70;;;;;;;;;;10413511;28;20530;-62
2024/03/06 18:04:35;;;;;;;7.53;2.00;;;;;;;;;;10413422;28;20075;-63
2024/03/06 18:09:36;;;;;;;1.92;1.65;;;;;;;;;;10413402;28;20478;-63
2024/03/06 18:14:36;;;;;;;2.95;1.60;;;;;;;;;;10413119;28;20022;-62
2024/03/06 18:19:36;;;;;;;3.90;1.77;;;;;;;;;;10412990;28;20017;-61
2024/03/06 18:24:37;;;;;;;2.90;1.80;;;;;;;;;;10411926;28;20969;-63
2024/03/06 18:29:37;;;;;;;1.67;1.58;;;;;;;;;;10412025;28;20421;-63
2024/03/06 18:34:38;;;;;;;2.00;1.65;;;;;;;;;;10412113;28;20041;-59
2024/03/06 18:39:38;;;;;;;2.15;1.88;;;;;;;;;;10412159;28;20095;-64
2024/03/06 18:44:39;;;;;;;6.90;1.98;;;;;;;;;;10410574;28;20021;-64
2024/03/06 18:49:40;;;;;;;3.42;1.80;;;;;;;;;;10411959;28;20033;-63
2024/03/06 18:54:40;;;;;;;2.10;1.90;;;;;;;;;;10410666;28;20075;-64
2024/03/06 18:59:42;;;;;;;2.03;1.67;;;;;;;;;;10410891;28;20017;-60
2024/03/06 19:04:44;;;;;;;4.05;2.10;;;;;;;;;;10409929;28;20076;-63
2024/03/06 19:09:45;;;;;;;2.30;1.75;;;;;;;;;;10409505;28;20036;-60
2024/03/06 19:14:45;;;;;;;1.80;1.65;;;;;;;;;;10410472;28;20392;-63
2024/03/06 19:19:46;;;;;;;4.63;1.90;;;;;;;;;;10410374;28;20025;-64
2024/03/06 19:24:47;;;;;;;4.57;1.90;;;;;;;;;;10409145;28;20477;-56
2024/03/06 19:29:47;;;;;;;6.13;1.80;;;;;;;;;;10410467;28;20435;-62
2024/03/06 19:34:48;;;;;;;3.83;2.17;;;;;;;;;;10410429;28;20465;-59
2024/03/06 19:39:49;;;;;;;6.28;2.00;;;;;;;;;;10409567;28;20029;-63
2024/03/06 19:44:50;;;;;;;2.67;2.00;;;;;;;;;;10408884;28;20064;-61
2024/03/06 19:49:50;;;;;;;3.97;2.10;;;;;;;;;;10407413;28;20032;-63
2024/03/06 19:54:51;;;;;;;3.40;2.10;;;;;;;;;;10407594;28;20496;-62
2024/03/06 19:59:51;;;;;;;3.10;2.00;;;;;;;;;;10407847;28;20538;-62
2024/03/06 20:04:52;;;;;;;2.50;2.10;;;;;;;;;;10407848;28;20107;-63
2024/03/06 20:09:52;;;;;;;3.75;2.15;;;;;;;;;;10407215;28;20048;-59
2024/03/06 20:14:52;;;;;;;4.20;1.97;;;;;;;;;;10407059;28;20025;-62
2024/03/06 20:19:54;;;;;;;2.90;1.93;;;;;;;;;;10407302;28;20450;-63
2024/03/06 20:24:54;;;;;;;8.82;2.20;;;;;;;;;;10409089;28;20450;-63
2024/03/06 20:29:56;;;;;;;4.53;2.40;;;;;;;;;;10408313;28;20087;-63
2024/03/06 20:34:57;;;;;;;3.22;1.92;;;;;;;;;;10407816;28;20029;-63
2024/03/06 20:39:58;;;;;;;4.22;2.13;;;;;;;;;;10407151;28;20032;-62
2024/03/06 20:44:59;;;;;;;10.68;2.45;;;;;;;;;;10401370;28;20029;-61
2024/03/06 20:49:59;;;;;;;12.23;2.10;;;;;;;;;;10406823;28;20076;-61
2024/03/06 20:55:00;;;;;;;4.35;2.20;;;;;;;;;;10393081;28;20037;-57
2024/03/06 21:00:00;;;;;;;1.80;1.70;;;;;;;;;;10407550;28;20021;-58
2024/03/06 21:05:01;;;;;;;3.00;1.90;;;;;;;;;;10406433;28;20041;-61
2024/03/06 21:10:02;;;;;;;2.75;1.67;;;;;;;;;;10406605;28;20025;-58
2024/03/06 21:15:05;;;;;;;2.47;2.03;;;;;;;;;;10406525;28;20037;-55
2024/03/06 21:20:11;;;;;;;3.55;1.85;;;;;;;;;;10407298;28;20021;-57
2024/03/06 21:25:12;;;;;;;5.97;2.45;;;;;;;;;;10407037;28;20033;-56
2024/03/06 21:30:13;;;;;;;2.38;1.75;;;;;;;;;;10406748;28;20484;-56
2024/03/06 21:35:13;;;;;;;5.65;1.98;;;;;;;;;;10415215;28;20095;-50
2024/03/06 21:40:14;;;;;;;2.88;1.70;;;;;;;;;;10415218;28;20083;-54
2024/03/06 21:45:14;;;;;;;4.55;1.80;;;;;;;;;;10413675;28;20029;-62
2024/03/06 21:50:15;;;;;;;2.72;1.90;;;;;;;;;;10413470;28;20021;-61
2024/03/06 21:55:15;;;;;;;4.53;1.75;;;;;;;;;;10413872;28;20028;-62
2024/03/06 22:00:17;;;;;;;4.38;1.90;;;;;;;;;;10413721;28;20079;-60
2024/03/06 22:05:19;;;;;;;3.78;1.88;;;;;;;;;;10413549;28;20452;-62
2024/03/06 22:10:19;;;;;;;3.42;1.98;;;;;;;;;;10413228;28;20473;-62
2024/03/06 22:15:19;;;;;;;6.83;1.90;;;;;;;;;;10413614;28;20021;-62
2024/03/06 22:20:20;;;;;;;2.42;1.58;;;;;;;;;;10413224;28;20794;-63
2024/03/06 22:25:20;;;;;;;3.53;1.80;;;;;;;;;;10413104;28;20485;-61
2024/03/06 22:30:21;;;;;;;2.35;1.73;;;;;;;;;;10412973;28;20018;-62
2024/03/06 22:35:21;;;;;;;2.27;1.90;;;;;;;;;;10412148;28;20265;-61
2024/03/06 22:40:21;;;;;;;11.57;1.97;;;;;;;;;;10412378;28;21047;-64
2024/03/06 22:45:22;;;;;;;7.33;2.07;;;;;;;;;;10411304;28;20450;-63
2024/03/06 22:50:23;;;;;;;5.55;1.80;;;;;;;;;;10411545;28;20977;-62
2024/03/06 22:55:23;;;;;;;3.92;2.00;;;;;;;;;;10410108;28;20022;-62
2024/03/06 23:00:28;;;;;;;6.82;1.80;;;;;;;;;;10410916;28;20021;-62
2024/03/06 23:05:29;;;;;;;3.03;1.88;;;;;;;;;;10409302;28;20509;-63
2024/03/06 23:10:30;;;;;;;2.38;1.75;;;;;;;;;;10402999;28;20067;-62
2024/03/06 23:15:30;;;;;;;6.72;2.08;;;;;;;;;;10408700;28;20028;-63
2024/03/06 23:20:31;;;;;;;3.63;1.70;;;;;;;;;;10409859;28;20025;-58
2024/03/06 23:25:33;;;;;;;4.60;1.60;;;;;;;;;;10410995;28;20094;-61
2024/03/06 23:30:36;;;;;;;4.75;1.90;;;;;;;;;;10410884;28;20427;-60
2024/03/06 23:35:36;;;;;;;1.50;1.40;;;;;;;;;;10410358;28;20109;-62
2024/03/06 23:40:37;;;;;;;4.60;1.58;;;;;;;;;;10410389;28;20025;-62
2024/03/06 23:45:37;;;;;;;5.25;1.67;;;;;;;;;;10408938;28;20029;-58
2024/03/06 23:50:37;;;;;;;5.60;1.97;;;;;;;;;;10409410;28;20022;-54
2024/03/06 23:55:39;;;;;;;3.22;1.77;;;;;;;;;;10408308;28;20542;-53
